Toomsboro, Georgia
Current Conditions -  °F | °C
As of 9:15 PM on Friday 31 Oct 2014 (Local Time) from KOKZ Reporting Station
Scattered Clouds Scattered Clouds  
Wind Chill: 56°   Ceiling: Unl
Heat Index: 56°   Visibility: 10mi
Dew Point: 45°   Wind: 3mph
Humidity: 67%   Direction: 280°W
Pressure: 29.88"   Gusts: NA
Location:  32.83°N, 83.08°W
Report Text: KOKZ 010115Z AUTO 28003KT 10SM SCT110 13/07 A2988 RMK AO2 T01310070
Loading
Personal Weather Stations






























Interactive Weather Map
Tropical Storm Tracking
New forecast layout! Learn more

10-Day Weather Forecast

Advertisements
Track Severe Weather on mobile